sensor_id;sensor_type;location;lat;lon;timestamp;P1;durP1;ratioP1;P2;durP2;ratioP2
35042;SDS011;21230;51.170;17.024;2023-03-07T00:01:00;41.38;;;22.33;;
35042;SDS011;21230;51.170;17.024;2023-03-07T00:03:26;37.00;;;20.27;;
35042;SDS011;21230;51.170;17.024;2023-03-07T00:06:07;37.75;;;20.75;;
35042;SDS011;21230;51.170;17.024;2023-03-07T00:08:35;52.83;;;23.25;;
35042;SDS011;21230;51.170;17.024;2023-03-07T00:11:03;47.15;;;23.45;;
35042;SDS011;21230;51.170;17.024;2023-03-07T00:13:30;45.78;;;25.67;;
35042;SDS011;21230;51.170;17.024;2023-03-07T00:16:01;53.55;;;29.10;;
35042;SDS011;21230;51.170;17.024;2023-03-07T00:18:31;44.13;;;23.92;;
35042;SDS011;21230;51.170;17.024;2023-03-07T00:20:59;63.97;;;30.40;;
35042;SDS011;21230;51.170;17.024;2023-03-07T00:23:27;62.20;;;32.42;;
35042;SDS011;21230;51.170;17.024;2023-03-07T00:26:00;61.83;;;31.83;;
35042;SDS011;21230;51.170;17.024;2023-03-07T00:28:28;60.50;;;29.58;;
35042;SDS011;21230;51.170;17.024;2023-03-07T00:30:54;67.43;;;34.05;;
35042;SDS011;21230;51.170;17.024;2023-03-07T00:33:24;67.05;;;33.13;;
35042;SDS011;21230;51.170;17.024;2023-03-07T00:36:32;64.95;;;33.03;;
35042;SDS011;21230;51.170;17.024;2023-03-07T00:38:40;63.22;;;30.98;;
35042;SDS011;21230;51.170;17.024;2023-03-07T00:41:11;56.65;;;30.55;;
35042;SDS011;21230;51.170;17.024;2023-03-07T00:43:38;73.90;;;37.97;;
35042;SDS011;21230;51.170;17.024;2023-03-07T00:46:05;88.18;;;42.03;;
35042;SDS011;21230;51.170;17.024;2023-03-07T00:48:31;74.00;;;37.63;;
35042;SDS011;21230;51.170;17.024;2023-03-07T00:50:59;76.25;;;35.35;;
35042;SDS011;21230;51.170;17.024;2023-03-07T00:53:25;76.22;;;35.42;;
35042;SDS011;21230;51.170;17.024;2023-03-07T00:55:55;71.93;;;34.60;;
35042;SDS011;21230;51.170;17.024;2023-03-07T00:58:32;75.78;;;36.08;;
35042;SDS011;21230;51.170;17.024;2023-03-07T01:01:00;74.72;;;35.92;;
35042;SDS011;21230;51.170;17.024;2023-03-07T01:03:27;73.32;;;37.28;;
35042;SDS011;21230;51.170;17.024;2023-03-07T01:05:53;71.63;;;34.92;;
35042;SDS011;21230;51.170;17.024;2023-03-07T01:08:19;71.15;;;36.38;;
35042;SDS011;21230;51.170;17.024;2023-03-07T01:10:46;96.60;;;49.15;;
35042;SDS011;21230;51.170;17.024;2023-03-07T01:13:15;91.45;;;47.90;;
35042;SDS011;21230;51.170;17.024;2023-03-07T01:15:42;76.05;;;41.50;;
35042;SDS011;21230;51.170;17.024;2023-03-07T01:18:08;93.38;;;43.05;;
35042;SDS011;21230;51.170;17.024;2023-03-07T01:20:35;76.18;;;39.28;;
35042;SDS011;21230;51.170;17.024;2023-03-07T01:23:03;78.25;;;39.85;;
35042;SDS011;21230;51.170;17.024;2023-03-07T01:25:29;80.85;;;42.08;;
35042;SDS011;21230;51.170;17.024;2023-03-07T01:27:56;82.65;;;38.05;;
35042;SDS011;21230;51.170;17.024;2023-03-07T01:30:25;84.53;;;39.70;;
35042;SDS011;21230;51.170;17.024;2023-03-07T01:32:57;77.50;;;38.45;;
35042;SDS011;21230;51.170;17.024;2023-03-07T01:35:24;85.95;;;40.17;;
35042;SDS011;21230;51.170;17.024;2023-03-07T01:37:51;77.68;;;39.30;;
35042;SDS011;21230;51.170;17.024;2023-03-07T01:40:18;76.70;;;41.58;;
35042;SDS011;21230;51.170;17.024;2023-03-07T01:42:45;78.38;;;39.13;;
35042;SDS011;21230;51.170;17.024;2023-03-07T01:47:37;76.55;;;38.63;;
35042;SDS011;21230;51.170;17.024;2023-03-07T01:50:08;83.60;;;40.15;;
35042;SDS011;21230;51.170;17.024;2023-03-07T01:52:47;65.40;;;35.65;;
35042;SDS011;21230;51.170;17.024;2023-03-07T01:55:25;70.72;;;34.22;;
35042;SDS011;21230;51.170;17.024;2023-03-07T01:57:55;68.28;;;32.33;;
35042;SDS011;21230;51.170;17.024;2023-03-07T02:00:27;79.25;;;39.42;;
35042;SDS011;21230;51.170;17.024;2023-03-07T02:05:36;61.28;;;31.52;;
35042;SDS011;21230;51.170;17.024;2023-03-07T02:08:10;76.70;;;36.20;;
35042;SDS011;21230;51.170;17.024;2023-03-07T02:10:38;73.15;;;37.10;;
35042;SDS011;21230;51.170;17.024;2023-03-07T02:13:05;69.10;;;37.38;;
35042;SDS011;21230;51.170;17.024;2023-03-07T02:15:32;84.22;;;41.35;;
35042;SDS011;21230;51.170;17.024;2023-03-07T02:17:58;80.63;;;38.10;;
35042;SDS011;21230;51.170;17.024;2023-03-07T02:21:09;72.53;;;38.05;;
35042;SDS011;21230;51.170;17.024;2023-03-07T02:28:26;88.20;;;41.70;;
35042;SDS011;21230;51.170;17.024;2023-03-07T02:30:54;81.97;;;40.72;;
35042;SDS011;21230;51.170;17.024;2023-03-07T02:33:20;82.45;;;40.67;;
35042;SDS011;21230;51.170;17.024;2023-03-07T02:35:49;72.43;;;36.53;;
35042;SDS011;21230;51.170;17.024;2023-03-07T02:38:22;83.13;;;37.08;;
35042;SDS011;21230;51.170;17.024;2023-03-07T02:40:49;69.72;;;35.65;;
35042;SDS011;21230;51.170;17.024;2023-03-07T02:43:19;68.63;;;36.03;;
35042;SDS011;21230;51.170;17.024;2023-03-07T02:45:46;73.95;;;36.20;;
35042;SDS011;21230;51.170;17.024;2023-03-07T02:48:12;78.75;;;37.70;;
35042;SDS011;21230;51.170;17.024;2023-03-07T02:50:38;75.20;;;38.33;;
35042;SDS011;21230;51.170;17.024;2023-03-07T02:53:04;72.15;;;36.00;;
35042;SDS011;21230;51.170;17.024;2023-03-07T02:55:30;73.55;;;38.35;;
35042;SDS011;21230;51.170;17.024;2023-03-07T02:57:57;78.65;;;37.83;;
35042;SDS011;21230;51.170;17.024;2023-03-07T03:00:23;86.82;;;38.25;;
35042;SDS011;21230;51.170;17.024;2023-03-07T03:02:49;80.20;;;37.78;;
35042;SDS011;21230;51.170;17.024;2023-03-07T03:05:15;97.00;;;39.13;;
35042;SDS011;21230;51.170;17.024;2023-03-07T03:07:41;84.50;;;43.17;;
35042;SDS011;21230;51.170;17.024;2023-03-07T03:10:07;93.03;;;41.63;;
35042;SDS011;21230;51.170;17.024;2023-03-07T03:12:34;82.63;;;40.72;;
35042;SDS011;21230;51.170;17.024;2023-03-07T03:14:59;95.93;;;47.85;;
35042;SDS011;21230;51.170;17.024;2023-03-07T03:17:25;93.93;;;44.50;;
35042;SDS011;21230;51.170;17.024;2023-03-07T03:19:51;92.78;;;43.85;;
35042;SDS011;21230;51.170;17.024;2023-03-07T03:22:17;91.75;;;39.50;;
35042;SDS011;21230;51.170;17.024;2023-03-07T03:24:42;98.18;;;47.90;;
35042;SDS011;21230;51.170;17.024;2023-03-07T03:27:08;104.93;;;54.28;;
35042;SDS011;21230;51.170;17.024;2023-03-07T03:29:34;111.43;;;52.58;;
35042;SDS011;21230;51.170;17.024;2023-03-07T03:32:00;88.25;;;41.35;;
35042;SDS011;21230;51.170;17.024;2023-03-07T03:34:27;95.25;;;44.47;;
35042;SDS011;21230;51.170;17.024;2023-03-07T03:36:53;78.35;;;37.67;;
35042;SDS011;21230;51.170;17.024;2023-03-07T03:39:19;82.47;;;38.30;;
35042;SDS011;21230;51.170;17.024;2023-03-07T03:41:44;79.90;;;39.35;;
35042;SDS011;21230;51.170;17.024;2023-03-07T03:44:10;73.97;;;38.28;;
35042;SDS011;21230;51.170;17.024;2023-03-07T03:46:36;96.88;;;45.90;;
35042;SDS011;21230;51.170;17.024;2023-03-07T03:49:02;78.30;;;38.80;;
35042;SDS011;21230;51.170;17.024;2023-03-07T03:51:29;91.15;;;43.13;;
35042;SDS011;21230;51.170;17.024;2023-03-07T03:53:55;103.75;;;48.95;;
35042;SDS011;21230;51.170;17.024;2023-03-07T03:56:23;110.80;;;50.13;;
35042;SDS011;21230;51.170;17.024;2023-03-07T03:58:51;111.28;;;49.42;;
35042;SDS011;21230;51.170;17.024;2023-03-07T04:01:19;133.30;;;58.58;;
35042;SDS011;21230;51.170;17.024;2023-03-07T04:03:49;98.28;;;50.10;;
35042;SDS011;21230;51.170;17.024;2023-03-07T04:06:20;108.25;;;51.35;;
35042;SDS011;21230;51.170;17.024;2023-03-07T04:08:48;107.68;;;50.47;;
35042;SDS011;21230;51.170;17.024;2023-03-07T04:11:14;104.90;;;47.28;;
35042;SDS011;21230;51.170;17.024;2023-03-07T04:13:41;120.15;;;54.78;;
35042;SDS011;21230;51.170;17.024;2023-03-07T04:16:07;119.47;;;53.10;;
35042;SDS011;21230;51.170;17.024;2023-03-07T04:18:33;119.35;;;53.13;;
35042;SDS011;21230;51.170;17.024;2023-03-07T04:21:00;108.38;;;46.78;;
35042;SDS011;21230;51.170;17.024;2023-03-07T04:23:26;95.07;;;46.10;;
35042;SDS011;21230;51.170;17.024;2023-03-07T04:25:53;117.95;;;52.28;;
35042;SDS011;21230;51.170;17.024;2023-03-07T04:28:21;110.28;;;50.88;;
35042;SDS011;21230;51.170;17.024;2023-03-07T04:30:48;108.93;;;51.85;;
35042;SDS011;21230;51.170;17.024;2023-03-07T04:33:18;103.50;;;48.90;;
35042;SDS011;21230;51.170;17.024;2023-03-07T04:35:44;91.03;;;45.00;;
35042;SDS011;21230;51.170;17.024;2023-03-07T04:38:11;96.43;;;44.38;;
35042;SDS011;21230;51.170;17.024;2023-03-07T04:40:38;103.53;;;48.03;;
35042;SDS011;21230;51.170;17.024;2023-03-07T04:43:04;99.95;;;45.50;;
35042;SDS011;21230;51.170;17.024;2023-03-07T04:45:31;91.65;;;45.38;;
35042;SDS011;21230;51.170;17.024;2023-03-07T04:48:00;106.38;;;46.92;;
35042;SDS011;21230;51.170;17.024;2023-03-07T04:50:26;101.55;;;46.38;;
35042;SDS011;21230;51.170;17.024;2023-03-07T04:52:52;97.40;;;44.60;;
35042;SDS011;21230;51.170;17.024;2023-03-07T04:55:18;102.65;;;52.08;;
35042;SDS011;21230;51.170;17.024;2023-03-07T04:57:44;116.80;;;54.78;;
35042;SDS011;21230;51.170;17.024;2023-03-07T05:00:10;100.43;;;47.65;;
35042;SDS011;21230;51.170;17.024;2023-03-07T05:02:37;111.30;;;49.45;;
35042;SDS011;21230;51.170;17.024;2023-03-07T05:05:04;86.85;;;43.10;;
35042;SDS011;21230;51.170;17.024;2023-03-07T05:07:30;112.35;;;46.47;;
35042;SDS011;21230;51.170;17.024;2023-03-07T05:09:57;107.40;;;47.95;;
35042;SDS011;21230;51.170;17.024;2023-03-07T05:12:24;95.85;;;44.28;;
35042;SDS011;21230;51.170;17.024;2023-03-07T05:14:50;93.28;;;46.85;;
35042;SDS011;21230;51.170;17.024;2023-03-07T05:17:16;123.00;;;67.18;;
35042;SDS011;21230;51.170;17.024;2023-03-07T05:19:43;143.07;;;87.82;;
35042;SDS011;21230;51.170;17.024;2023-03-07T05:22:09;132.48;;;72.07;;
35042;SDS011;21230;51.170;17.024;2023-03-07T05:24:35;89.57;;;45.25;;
35042;SDS011;21230;51.170;17.024;2023-03-07T05:27:01;87.90;;;41.10;;
35042;SDS011;21230;51.170;17.024;2023-03-07T05:29:26;100.60;;;48.97;;
35042;SDS011;21230;51.170;17.024;2023-03-07T05:31:52;115.93;;;52.35;;
35042;SDS011;21230;51.170;17.024;2023-03-07T05:34:19;125.15;;;56.85;;
35042;SDS011;21230;51.170;17.024;2023-03-07T05:36:45;134.23;;;65.60;;
35042;SDS011;21230;51.170;17.024;2023-03-07T05:39:11;123.68;;;66.70;;
35042;SDS011;21230;51.170;17.024;2023-03-07T05:41:39;109.18;;;58.72;;
35042;SDS011;21230;51.170;17.024;2023-03-07T05:44:05;105.75;;;62.53;;
35042;SDS011;21230;51.170;17.024;2023-03-07T05:46:31;111.75;;;61.58;;
35042;SDS011;21230;51.170;17.024;2023-03-07T05:48:57;101.20;;;57.63;;
35042;SDS011;21230;51.170;17.024;2023-03-07T05:51:23;105.53;;;58.88;;
35042;SDS011;21230;51.170;17.024;2023-03-07T05:53:49;96.90;;;49.08;;
35042;SDS011;21230;51.170;17.024;2023-03-07T05:56:15;141.40;;;87.15;;
35042;SDS011;21230;51.170;17.024;2023-03-07T05:58:41;104.47;;;53.20;;
35042;SDS011;21230;51.170;17.024;2023-03-07T06:01:07;70.70;;;34.95;;
35042;SDS011;21230;51.170;17.024;2023-03-07T06:03:32;67.32;;;32.78;;
35042;SDS011;21230;51.170;17.024;2023-03-07T06:05:58;72.13;;;34.15;;
35042;SDS011;21230;51.170;17.024;2023-03-07T06:08:24;63.78;;;31.30;;
35042;SDS011;21230;51.170;17.024;2023-03-07T06:10:50;48.63;;;26.23;;
35042;SDS011;21230;51.170;17.024;2023-03-07T06:13:18;48.35;;;25.10;;
35042;SDS011;21230;51.170;17.024;2023-03-07T06:15:52;50.88;;;25.48;;
35042;SDS011;21230;51.170;17.024;2023-03-07T06:18:20;49.40;;;24.60;;
35042;SDS011;21230;51.170;17.024;2023-03-07T06:20:54;46.78;;;26.08;;
35042;SDS011;21230;51.170;17.024;2023-03-07T06:23:20;52.53;;;28.75;;
35042;SDS011;21230;51.170;17.024;2023-03-07T06:25:46;56.70;;;30.67;;
35042;SDS011;21230;51.170;17.024;2023-03-07T06:28:12;58.33;;;28.92;;
35042;SDS011;21230;51.170;17.024;2023-03-07T06:30:38;52.10;;;26.42;;
35042;SDS011;21230;51.170;17.024;2023-03-07T06:33:03;45.33;;;24.02;;
35042;SDS011;21230;51.170;17.024;2023-03-07T06:35:29;48.75;;;26.35;;
35042;SDS011;21230;51.170;17.024;2023-03-07T06:37:55;49.55;;;24.58;;
35042;SDS011;21230;51.170;17.024;2023-03-07T06:40:21;54.17;;;25.90;;
35042;SDS011;21230;51.170;17.024;2023-03-07T06:42:47;59.20;;;28.63;;
35042;SDS011;21230;51.170;17.024;2023-03-07T06:45:13;63.53;;;27.25;;
35042;SDS011;21230;51.170;17.024;2023-03-07T06:47:39;47.75;;;26.77;;
35042;SDS011;21230;51.170;17.024;2023-03-07T06:50:05;55.60;;;27.60;;
35042;SDS011;21230;51.170;17.024;2023-03-07T06:52:31;45.90;;;23.00;;
35042;SDS011;21230;51.170;17.024;2023-03-07T06:54:57;48.50;;;23.70;;
35042;SDS011;21230;51.170;17.024;2023-03-07T23:30:29;20.40;;;9.80;;
35042;SDS011;21230;51.170;17.024;2023-03-07T23:32:54;17.67;;;10.13;;
35042;SDS011;21230;51.170;17.024;2023-03-07T23:35:21;19.30;;;10.25;;
35042;SDS011;21230;51.170;17.024;2023-03-07T23:37:47;14.88;;;8.07;;
35042;SDS011;21230;51.170;17.024;2023-03-07T23:40:13;23.40;;;11.65;;
35042;SDS011;21230;51.170;17.024;2023-03-07T23:42:39;15.20;;;8.88;;
35042;SDS011;21230;51.170;17.024;2023-03-07T23:45:05;18.60;;;9.15;;
35042;SDS011;21230;51.170;17.024;2023-03-07T23:47:32;18.02;;;9.98;;
35042;SDS011;21230;51.170;17.024;2023-03-07T23:49:58;18.25;;;9.90;;
35042;SDS011;21230;51.170;17.024;2023-03-07T23:52:25;19.67;;;9.80;;
35042;SDS011;21230;51.170;17.024;2023-03-07T23:54:51;14.00;;;8.60;;
35042;SDS011;21230;51.170;17.024;2023-03-07T23:57:16;17.73;;;10.07;;
35042;SDS011;21230;51.170;17.024;2023-03-07T23:59:42;19.77;;;10.05;;
